createdAt,value
2022-11-24T00:02:07.220Z,37.70
2022-11-24T00:04:54.852Z,35.55
2022-11-24T00:07:42.299Z,33.92
2022-11-24T00:10:29.676Z,37.30
2022-11-24T00:13:17.205Z,41.65
2022-11-24T00:16:09.233Z,40.10
2022-11-24T00:21:45.157Z,32.33
2022-11-24T00:24:32.914Z,33.30
2022-11-24T00:27:20.765Z,38.15
2022-11-24T00:30:09.962Z,32.50
2022-11-24T00:32:57.319Z,33.55
2022-11-24T00:35:46.640Z,38.35
2022-11-24T00:38:34.828Z,35.20
2022-11-24T00:41:23.107Z,31.38
2022-11-24T00:44:10.630Z,34.55
2022-11-24T00:46:58.204Z,30.02
2022-11-24T00:49:45.711Z,33.03
2022-11-24T00:52:33.235Z,29.63
2022-11-24T00:55:21.135Z,31.67
2022-11-24T00:58:10.235Z,31.55
2022-11-24T01:01:06.648Z,34.53
2022-11-24T01:03:57.388Z,39.60
2022-11-24T01:06:44.731Z,32.58
2022-11-24T01:09:32.094Z,39.00
2022-11-24T01:12:19.454Z,39.92
2022-11-24T01:15:07.405Z,36.80
2022-11-24T01:17:55.177Z,31.55
2022-11-24T01:20:42.572Z,34.40
2022-11-24T01:23:30.044Z,29.23
2022-11-24T01:26:25.977Z,34.20
2022-11-24T01:29:15.097Z,27.42
2022-11-24T01:32:03.775Z,26.05
2022-11-24T01:34:51.223Z,28.13
2022-11-24T01:37:38.586Z,29.92
2022-11-24T01:40:26.391Z,28.00
2022-11-24T01:43:19.824Z,35.50
2022-11-24T01:46:31.650Z,39.42
2022-11-24T01:49:24.684Z,25.67
2022-11-24T01:52:31.393Z,29.27
2022-11-24T01:55:23.081Z,33.05
2022-11-24T01:58:19.115Z,29.90
2022-11-24T02:01:06.668Z,27.80
2022-11-24T02:03:54.332Z,33.33
2022-11-24T02:06:43.978Z,26.20
2022-11-24T02:09:58.363Z,29.80
2022-11-24T02:12:48.911Z,40.63
2022-11-24T02:15:36.374Z,33.33
2022-11-24T02:18:23.827Z,30.20
2022-11-24T02:21:14.577Z,29.42
2022-11-24T02:24:24.177Z,28.88
2022-11-24T02:27:11.998Z,25.42
2022-11-24T02:30:00.253Z,33.15
2022-11-24T02:32:47.958Z,30.63
2022-11-24T02:35:35.417Z,25.08
2022-11-24T02:38:33.819Z,27.58
2022-11-24T02:41:24.424Z,23.83
2022-11-24T02:44:15.990Z,27.50
2022-11-24T02:47:09.205Z,24.42
2022-11-24T02:49:57.634Z,27.55
2022-11-24T02:52:45.240Z,33.10
2022-11-24T02:55:33.297Z,30.25
2022-11-24T02:58:21.286Z,24.45
2022-11-24T03:01:09.413Z,31.60
2022-11-24T03:03:56.896Z,28.45
2022-11-24T03:06:45.684Z,25.67
2022-11-24T03:09:33.099Z,28.85
2022-11-24T03:12:21.855Z,24.92
2022-11-24T03:15:09.736Z,26.45
2022-11-24T03:17:57.114Z,33.13
2022-11-24T03:20:44.587Z,35.20
2022-11-24T03:23:31.963Z,31.50
2022-11-24T03:26:23.262Z,35.90
2022-11-24T03:29:10.768Z,37.53
2022-11-24T03:31:58.955Z,30.27
2022-11-24T03:34:46.354Z,27.67
2022-11-24T03:37:33.755Z,31.52
2022-11-24T03:40:21.384Z,30.25
2022-11-24T03:43:09.036Z,31.13
2022-11-24T03:45:56.737Z,28.35
2022-11-24T03:48:44.137Z,36.53
2022-11-24T03:51:32.012Z,27.85
2022-11-24T03:54:19.487Z,32.13
2022-11-24T03:57:06.991Z,41.15
2022-11-24T03:59:54.501Z,30.70
2022-11-24T04:02:41.948Z,32.85
2022-11-24T04:05:29.667Z,32.15
2022-11-24T04:08:20.544Z,35.03
2022-11-24T04:11:07.953Z,38.50
2022-11-24T04:13:55.372Z,34.65
2022-11-24T04:16:43.310Z,41.75
2022-11-24T04:19:31.030Z,30.52
2022-11-24T04:22:18.817Z,34.20
2022-11-24T04:25:07.827Z,43.63
2022-11-24T04:27:56.139Z,36.03
2022-11-24T04:30:45.130Z,37.30
2022-11-24T04:33:33.245Z,39.58
2022-11-24T04:36:20.715Z,55.33
2022-11-24T04:39:19.796Z,44.60
2022-11-24T04:42:12.803Z,41.03
2022-11-24T04:45:00.674Z,43.40
2022-11-24T04:47:48.064Z,33.90
2022-11-24T04:50:37.506Z,35.85
2022-11-24T04:53:25.002Z,41.85
2022-11-24T04:56:12.722Z,32.35
2022-11-24T04:59:06.658Z,32.20
2022-11-24T05:01:55.516Z,48.88
2022-11-24T05:04:43.514Z,40.47
2022-11-24T05:07:30.969Z,43.05
2022-11-24T05:10:36.828Z,46.63
2022-11-24T05:13:24.216Z,43.53
2022-11-24T05:16:12.323Z,41.45
2022-11-24T05:18:59.892Z,45.35
2022-11-24T05:21:48.680Z,45.95
2022-11-24T05:24:36.277Z,45.95
2022-11-24T05:27:33.244Z,39.70
2022-11-24T05:30:20.588Z,49.20
2022-11-24T05:33:11.546Z,50.90
2022-11-24T05:36:08.926Z,35.33
2022-11-24T05:38:56.245Z,37.95
2022-11-24T05:41:43.603Z,55.85
2022-11-24T05:44:31.145Z,52.42
2022-11-24T05:47:19.121Z,37.03
2022-11-24T05:50:07.491Z,48.33
2022-11-24T05:52:55.018Z,45.97
2022-11-24T05:55:43.210Z,43.72
2022-11-24T05:58:30.591Z,54.05
2022-11-24T06:01:17.995Z,41.38
2022-11-24T06:04:05.515Z,37.08
2022-11-24T06:06:53.190Z,42.60
2022-11-24T06:09:42.042Z,44.90
2022-11-24T06:12:29.980Z,56.47
2022-11-24T06:15:17.811Z,45.78
2022-11-24T06:18:05.637Z,45.47
2022-11-24T06:21:09.899Z,43.83
2022-11-24T06:23:58.844Z,55.22
2022-11-24T06:26:46.225Z,41.05
2022-11-24T06:29:33.807Z,39.78
2022-11-24T06:32:21.350Z,40.00
2022-11-24T06:35:08.826Z,45.53
2022-11-24T06:37:56.118Z,51.13
2022-11-24T06:40:43.479Z,40.72
2022-11-24T06:43:30.927Z,43.55
2022-11-24T06:46:18.431Z,40.47
2022-11-24T06:49:05.851Z,48.55
2022-11-24T06:51:55.215Z,41.17
2022-11-24T06:54:43.535Z,50.17
2022-11-24T06:57:31.616Z,38.83
2022-11-24T07:00:19.246Z,40.08
2022-11-24T07:03:06.666Z,47.70
2022-11-24T07:05:58.326Z,41.60
2022-11-24T07:08:46.442Z,42.53
2022-11-24T07:11:33.959Z,46.72
2022-11-24T07:14:21.718Z,42.75
2022-11-24T07:17:09.004Z,52.05
2022-11-24T07:19:56.372Z,36.80
2022-11-24T07:22:43.828Z,47.00
2022-11-24T07:25:32.635Z,53.35
2022-11-24T07:28:20.000Z,45.58
2022-11-24T07:31:16.231Z,49.22
2022-11-24T07:34:04.025Z,41.88
2022-11-24T07:36:51.626Z,39.83
2022-11-24T07:39:39.082Z,50.95
2022-11-24T07:42:26.607Z,44.92
2022-11-24T07:45:14.202Z,44.78
2022-11-24T07:48:01.518Z,47.15
2022-11-24T07:50:55.307Z,46.92
2022-11-24T07:53:44.148Z,57.38
2022-11-24T07:56:31.447Z,48.67
2022-11-24T07:59:18.916Z,47.90
2022-11-24T08:02:06.568Z,50.00
2022-11-24T08:04:54.175Z,49.50
2022-11-24T08:07:41.589Z,48.53
2022-11-24T08:10:28.962Z,56.08
2022-11-24T08:13:16.506Z,54.10
2022-11-24T08:16:09.448Z,54.80
2022-11-24T08:18:57.072Z,54.72
2022-11-24T08:21:44.457Z,38.40
2022-11-24T08:24:32.201Z,48.60
2022-11-24T08:27:20.335Z,44.80
2022-11-24T08:30:08.908Z,48.03
2022-11-24T08:33:00.772Z,55.33
2022-11-24T08:35:48.197Z,54.17
2022-11-24T08:38:36.564Z,48.97
2022-11-24T08:41:25.080Z,41.55
2022-11-24T08:44:15.939Z,43.78
2022-11-24T08:47:03.611Z,41.53
2022-11-24T08:49:51.077Z,44.42
2022-11-24T08:52:38.627Z,53.03
2022-11-24T08:55:26.053Z,62.83
2022-11-24T08:58:14.927Z,54.05
2022-11-24T09:01:09.644Z,44.78
2022-11-24T09:03:58.287Z,46.70
2022-11-24T09:06:45.852Z,46.25
2022-11-24T09:09:33.209Z,39.10
2022-11-24T09:27:39.452Z,42.28
2022-11-24T09:30:27.517Z,44.97
2022-11-24T09:33:15.186Z,40.72
2022-11-24T09:36:03.924Z,43.38
2022-11-24T09:38:52.520Z,39.40
2022-11-24T09:41:57.224Z,46.47
2022-11-24T09:44:53.851Z,38.67
2022-11-24T09:48:03.340Z,41.63
2022-11-24T09:50:52.812Z,37.60
2022-11-24T09:53:53.207Z,33.58
2022-11-24T09:56:42.573Z,39.65
2022-11-24T09:59:31.924Z,33.35
2022-11-24T10:02:19.731Z,34.75
2022-11-24T10:05:08.246Z,36.05
2022-11-24T10:08:27.907Z,30.98
2022-11-24T10:11:22.461Z,30.55
2022-11-24T10:14:24.547Z,30.63
2022-11-24T10:20:42.358Z,29.17
2022-11-24T10:23:41.908Z,29.80
2022-11-24T10:26:47.222Z,33.50
2022-11-24T10:29:40.727Z,36.42
2022-11-24T10:32:39.575Z,30.25
2022-11-24T10:35:38.961Z,34.15
2022-11-24T10:38:51.676Z,31.17
2022-11-24T10:41:53.568Z,33.70
2022-11-24T10:44:42.715Z,35.05
2022-11-24T10:47:31.429Z,29.77
2022-11-24T10:50:29.232Z,38.85
2022-11-24T10:53:30.373Z,28.23
2022-11-24T10:56:18.870Z,32.28
2022-11-24T10:59:31.228Z,30.67
2022-11-24T11:02:28.068Z,31.02
2022-11-24T11:05:42.571Z,38.53
2022-11-24T11:08:32.570Z,32.35
2022-11-24T11:11:29.416Z,42.75
2022-11-24T11:14:52.633Z,31.35
2022-11-24T11:17:41.521Z,29.52
2022-11-24T11:20:33.768Z,29.58
2022-11-24T11:23:28.007Z,28.98
2022-11-24T11:26:25.076Z,30.73
2022-11-24T11:35:37.922Z,26.02
2022-11-24T11:38:36.374Z,27.42
2022-11-24T11:41:34.136Z,21.15
2022-11-24T11:44:48.577Z,23.92
2022-11-24T11:47:45.751Z,33.00
2022-11-24T11:54:25.477Z,25.42
2022-11-24T11:57:28.307Z,24.10
2022-11-24T12:00:27.903Z,28.35
2022-11-24T12:03:31.377Z,29.90
2022-11-24T12:06:39.363Z,26.80
2022-11-24T12:09:56.236Z,29.25
2022-11-24T12:13:14.713Z,22.13
2022-11-24T12:16:17.610Z,25.80
2022-11-24T12:19:11.498Z,21.73
2022-11-24T12:22:22.867Z,23.15
2022-11-24T12:25:28.705Z,26.20
2022-11-24T12:28:49.225Z,21.38
2022-11-24T12:32:24.939Z,19.98
2022-11-24T12:35:22.314Z,19.83
2022-11-24T12:38:23.883Z,17.15
2022-11-24T12:41:40.410Z,23.27
2022-11-24T12:44:57.298Z,22.52
2022-11-24T12:48:09.212Z,14.93
2022-11-24T12:51:01.948Z,16.02
2022-11-24T12:53:53.137Z,18.30
2022-11-24T12:56:57.759Z,14.95
2022-11-24T13:00:08.518Z,13.88
2022-11-24T13:03:05.728Z,16.55
2022-11-24T13:06:01.532Z,16.40
2022-11-24T13:08:49.682Z,14.13
2022-11-24T13:11:39.045Z,15.15
2022-11-24T13:14:37.817Z,15.35
2022-11-24T13:17:52.452Z,21.67
2022-11-24T13:20:46.261Z,20.27
2022-11-24T13:23:34.239Z,15.88
2022-11-24T13:26:53.014Z,18.75
2022-11-24T13:29:43.315Z,18.77
2022-11-24T13:32:47.660Z,18.65
2022-11-24T13:35:35.520Z,19.73
2022-11-24T13:38:54.662Z,22.15
2022-11-24T13:41:42.624Z,20.92
2022-11-24T13:44:43.860Z,25.98
2022-11-24T13:47:36.125Z,26.07
2022-11-24T13:50:45.849Z,24.83
2022-11-24T13:53:46.029Z,22.50
2022-11-24T13:56:33.622Z,25.23
2022-11-24T13:59:37.135Z,23.73
2022-11-24T14:02:24.899Z,23.77
2022-11-24T14:05:25.043Z,22.58
2022-11-24T14:08:24.555Z,22.52
2022-11-24T14:11:19.321Z,22.77
2022-11-24T14:14:26.799Z,18.75
